Bloomingport, Indiana
Current Conditions -  °F | °C
As of 7:53 PM on Monday 26 Jan 2015 (Local Time) from KMIE Reporting Station
Overcast Overcast  
Wind Chill: 21°   Ceiling: 6000
Heat Index: 21°   Visibility: 10mi
Dew Point: 14°   Wind: 3mph
Humidity: 74%   Direction: 160°SSE
Pressure: 29.92"   Gusts: NA
Location:  40.0606°N, 84.9258°W
Report Text: KMIE 270053Z 16003KT 10SM OVC060 M06/M10 A2992 RMK AO2 SLP144 T10611100
Loading
Personal Weather Stations






























Interactive Weather Map New forecast layout! Learn more

10-Day Weather Forecast

Advertisements
Track Severe Weather on mobile